sensor_id;sensor_type;location;lat;lon;timestamp;temperature;humidity
19972;DHT22;10147;16.402;102.848;2023-11-19T00:02:05;19.80;99.90
19972;DHT22;10147;16.402;102.848;2023-11-19T00:04:39;19.90;99.90
19972;DHT22;10147;16.402;102.848;2023-11-19T00:07:09;19.90;99.90
19972;DHT22;10147;16.402;102.848;2023-11-19T00:09:41;20.00;99.90
19972;DHT22;10147;16.402;102.848;2023-11-19T00:12:13;20.10;99.90
19972;DHT22;10147;16.402;102.848;2023-11-19T00:14:43;20.20;99.90
19972;DHT22;10147;16.402;102.848;2023-11-19T00:17:14;20.30;99.90
19972;DHT22;10147;16.402;102.848;2023-11-19T00:19:43;20.30;99.90
19972;DHT22;10147;16.402;102.848;2023-11-19T00:22:13;20.30;99.90
19972;DHT22;10147;16.402;102.848;2023-11-19T00:24:44;20.30;99.90
19972;DHT22;10147;16.402;102.848;2023-11-19T00:27:14;20.40;99.90
19972;DHT22;10147;16.402;102.848;2023-11-19T00:29:52;20.20;99.90
19972;DHT22;10147;16.402;102.848;2023-11-19T00:32:22;20.30;99.90
19972;DHT22;10147;16.402;102.848;2023-11-19T00:34:53;20.40;99.90
19972;DHT22;10147;16.402;102.848;2023-11-19T00:37:23;20.50;99.90
19972;DHT22;10147;16.402;102.848;2023-11-19T00:39:53;20.50;99.90
19972;DHT22;10147;16.402;102.848;2023-11-19T00:42:23;20.50;99.90
19972;DHT22;10147;16.402;102.848;2023-11-19T00:44:57;20.60;99.90
19972;DHT22;10147;16.402;102.848;2023-11-19T00:47:28;20.80;99.90
19972;DHT22;10147;16.402;102.848;2023-11-19T00:50:00;20.80;99.90
19972;DHT22;10147;16.402;102.848;2023-11-19T00:52:31;20.80;99.90
19972;DHT22;10147;16.402;102.848;2023-11-19T00:55:04;20.70;99.90
19972;DHT22;10147;16.402;102.848;2023-11-19T00:57:35;20.80;99.90
19972;DHT22;10147;16.402;102.848;2023-11-19T01:00:07;21.00;99.90
19972;DHT22;10147;16.402;102.848;2023-11-19T01:02:46;21.10;99.90
19972;DHT22;10147;16.402;102.848;2023-11-19T01:05:20;21.10;99.90
19972;DHT22;10147;16.402;102.848;2023-11-19T01:07:52;20.90;99.90
19972;DHT22;10147;16.402;102.848;2023-11-19T01:10:23;21.00;99.90
19972;DHT22;10147;16.402;102.848;2023-11-19T01:12:55;21.00;99.90
19972;DHT22;10147;16.402;102.848;2023-11-19T01:15:27;21.30;99.90
19972;DHT22;10147;16.402;102.848;2023-11-19T01:17:57;21.50;99.90
19972;DHT22;10147;16.402;102.848;2023-11-19T01:20:27;21.60;99.90
19972;DHT22;10147;16.402;102.848;2023-11-19T01:22:57;21.60;99.90
19972;DHT22;10147;16.402;102.848;2023-11-19T01:25:28;21.70;99.90
19972;DHT22;10147;16.402;102.848;2023-11-19T01:27:58;21.70;99.90
19972;DHT22;10147;16.402;102.848;2023-11-19T01:30:28;21.50;99.90
19972;DHT22;10147;16.402;102.848;2023-11-19T01:32:58;21.60;99.90
19972;DHT22;10147;16.402;102.848;2023-11-19T01:35:28;21.80;99.90
19972;DHT22;10147;16.402;102.848;2023-11-19T01:37:58;21.60;99.90
19972;DHT22;10147;16.402;102.848;2023-11-19T01:40:28;21.90;99.90
19972;DHT22;10147;16.402;102.848;2023-11-19T01:42:59;22.20;99.90
19972;DHT22;10147;16.402;102.848;2023-11-19T01:45:30;22.30;99.90
19972;DHT22;10147;16.402;102.848;2023-11-19T01:48:02;22.40;99.90
19972;DHT22;10147;16.402;102.848;2023-11-19T01:50:35;22.10;99.90
19972;DHT22;10147;16.402;102.848;2023-11-19T01:53:05;22.30;99.90
19972;DHT22;10147;16.402;102.848;2023-11-19T01:55:36;22.50;99.90
19972;DHT22;10147;16.402;102.848;2023-11-19T01:58:06;22.60;99.90
19972;DHT22;10147;16.402;102.848;2023-11-19T02:00:38;22.80;99.90
19972;DHT22;10147;16.402;102.848;2023-11-19T02:03:08;22.90;99.90
19972;DHT22;10147;16.402;102.848;2023-11-19T02:05:39;22.80;99.90
19972;DHT22;10147;16.402;102.848;2023-11-19T02:08:09;23.00;99.90
19972;DHT22;10147;16.402;102.848;2023-11-19T02:10:42;22.80;99.90
19972;DHT22;10147;16.402;102.848;2023-11-19T02:13:12;22.80;99.90
19972;DHT22;10147;16.402;102.848;2023-11-19T02:15:43;23.00;99.90
19972;DHT22;10147;16.402;102.848;2023-11-19T02:18:33;23.30;99.90
19972;DHT22;10147;16.402;102.848;2023-11-19T02:21:03;23.20;99.90
19972;DHT22;10147;16.402;102.848;2023-11-19T02:23:35;23.50;99.90
19972;DHT22;10147;16.402;102.848;2023-11-19T02:26:28;23.30;99.90
19972;DHT22;10147;16.402;102.848;2023-11-19T02:28:59;23.80;99.90
19972;DHT22;10147;16.402;102.848;2023-11-19T02:31:31;23.80;99.90
19972;DHT22;10147;16.402;102.848;2023-11-19T02:34:01;23.90;99.90
19972;DHT22;10147;16.402;102.848;2023-11-19T02:36:33;24.10;99.90
19972;DHT22;10147;16.402;102.848;2023-11-19T02:39:03;24.00;99.90
19972;DHT22;10147;16.402;102.848;2023-11-19T02:41:34;24.10;99.90
19972;DHT22;10147;16.402;102.848;2023-11-19T02:44:04;24.40;99.90
19972;DHT22;10147;16.402;102.848;2023-11-19T02:46:35;24.50;99.90
19972;DHT22;10147;16.402;102.848;2023-11-19T02:49:05;24.40;99.90
19972;DHT22;10147;16.402;102.848;2023-11-19T02:51:38;24.40;99.90
19972;DHT22;10147;16.402;102.848;2023-11-19T02:54:08;24.50;99.90
19972;DHT22;10147;16.402;102.848;2023-11-19T02:56:42;24.30;99.90
19972;DHT22;10147;16.402;102.848;2023-11-19T02:59:13;24.70;99.90
19972;DHT22;10147;16.402;102.848;2023-11-19T03:01:58;24.90;99.90
19972;DHT22;10147;16.402;102.848;2023-11-19T03:04:29;24.80;99.90
19972;DHT22;10147;16.402;102.848;2023-11-19T03:07:00;24.90;99.90
19972;DHT22;10147;16.402;102.848;2023-11-19T03:09:30;24.90;99.90
19972;DHT22;10147;16.402;102.848;2023-11-19T03:12:00;25.10;99.90
19972;DHT22;10147;16.402;102.848;2023-11-19T03:14:35;25.10;99.90
19972;DHT22;10147;16.402;102.848;2023-11-19T03:17:06;25.20;99.90
19972;DHT22;10147;16.402;102.848;2023-11-19T03:19:36;25.50;99.90
19972;DHT22;10147;16.402;102.848;2023-11-19T03:22:06;25.30;99.90
19972;DHT22;10147;16.402;102.848;2023-11-19T03:24:36;25.30;99.90
19972;DHT22;10147;16.402;102.848;2023-11-19T03:27:06;25.50;99.90
19972;DHT22;10147;16.402;102.848;2023-11-19T03:29:36;25.70;99.90
19972;DHT22;10147;16.402;102.848;2023-11-19T03:32:07;25.80;99.90
19972;DHT22;10147;16.402;102.848;2023-11-19T03:34:37;25.70;99.90
19972;DHT22;10147;16.402;102.848;2023-11-19T03:37:08;26.00;99.90
19972;DHT22;10147;16.402;102.848;2023-11-19T03:39:38;26.00;99.90
19972;DHT22;10147;16.402;102.848;2023-11-19T03:42:08;25.90;99.90
19972;DHT22;10147;16.402;102.848;2023-11-19T03:44:38;26.10;99.90
19972;DHT22;10147;16.402;102.848;2023-11-19T03:47:08;26.10;99.90
19972;DHT22;10147;16.402;102.848;2023-11-19T03:49:38;26.00;99.90
19972;DHT22;10147;16.402;102.848;2023-11-19T03:52:08;26.30;99.90
19972;DHT22;10147;16.402;102.848;2023-11-19T03:54:48;26.40;99.90
19972;DHT22;10147;16.402;102.848;2023-11-19T03:57:17;26.60;99.90
19972;DHT22;10147;16.402;102.848;2023-11-19T03:59:48;26.70;99.90
19972;DHT22;10147;16.402;102.848;2023-11-19T04:02:18;26.50;99.90
19972;DHT22;10147;16.402;102.848;2023-11-19T04:04:48;26.80;99.90
19972;DHT22;10147;16.402;102.848;2023-11-19T04:07:18;26.80;99.90
19972;DHT22;10147;16.402;102.848;2023-11-19T04:09:50;26.90;99.90
19972;DHT22;10147;16.402;102.848;2023-11-19T04:12:20;27.00;99.90
19972;DHT22;10147;16.402;102.848;2023-11-19T04:14:52;27.20;99.90
19972;DHT22;10147;16.402;102.848;2023-11-19T04:17:25;27.20;99.90
19972;DHT22;10147;16.402;102.848;2023-11-19T04:19:55;27.20;99.90
19972;DHT22;10147;16.402;102.848;2023-11-19T04:22:26;27.00;99.90
19972;DHT22;10147;16.402;102.848;2023-11-19T04:24:56;27.00;99.90
19972;DHT22;10147;16.402;102.848;2023-11-19T04:27:26;27.00;99.90
19972;DHT22;10147;16.402;102.848;2023-11-19T04:29:56;27.50;99.90
19972;DHT22;10147;16.402;102.848;2023-11-19T04:32:26;27.80;99.90
19972;DHT22;10147;16.402;102.848;2023-11-19T04:34:56;27.40;99.90
19972;DHT22;10147;16.402;102.848;2023-11-19T04:37:26;27.40;99.90
19972;DHT22;10147;16.402;102.848;2023-11-19T04:39:56;27.90;99.90
19972;DHT22;10147;16.402;102.848;2023-11-19T04:42:30;28.00;98.10
19972;DHT22;10147;16.402;102.848;2023-11-19T04:45:05;28.20;99.90
19972;DHT22;10147;16.402;102.848;2023-11-19T04:47:37;28.00;98.70
19972;DHT22;10147;16.402;102.848;2023-11-19T04:50:08;28.10;96.20
19972;DHT22;10147;16.402;102.848;2023-11-19T04:52:42;27.90;97.40
19972;DHT22;10147;16.402;102.848;2023-11-19T04:55:14;27.90;96.30
19972;DHT22;10147;16.402;102.848;2023-11-19T04:57:44;27.70;96.40
19972;DHT22;10147;16.402;102.848;2023-11-19T05:00:15;27.60;96.10
19972;DHT22;10147;16.402;102.848;2023-11-19T05:02:47;27.60;96.10
19972;DHT22;10147;16.402;102.848;2023-11-19T05:05:18;27.80;97.60
19972;DHT22;10147;16.402;102.848;2023-11-19T05:07:48;28.30;96.50
19972;DHT22;10147;16.402;102.848;2023-11-19T05:10:20;28.20;95.80
19972;DHT22;10147;16.402;102.848;2023-11-19T05:12:51;28.60;95.70
19972;DHT22;10147;16.402;102.848;2023-11-19T05:15:24;28.70;94.30
19972;DHT22;10147;16.402;102.848;2023-11-19T05:17:54;28.70;93.90
19972;DHT22;10147;16.402;102.848;2023-11-19T05:20:25;28.70;92.60
19972;DHT22;10147;16.402;102.848;2023-11-19T05:22:55;29.10;93.60
19972;DHT22;10147;16.402;102.848;2023-11-19T05:25:25;28.90;92.60
19972;DHT22;10147;16.402;102.848;2023-11-19T05:27:57;28.90;91.50
19972;DHT22;10147;16.402;102.848;2023-11-19T05:30:28;28.80;91.90
19972;DHT22;10147;16.402;102.848;2023-11-19T05:32:58;28.80;91.80
19972;DHT22;10147;16.402;102.848;2023-11-19T05:35:28;29.20;88.80
19972;DHT22;10147;16.402;102.848;2023-11-19T05:37:58;28.80;90.50
19972;DHT22;10147;16.402;102.848;2023-11-19T05:40:28;29.00;90.30
19972;DHT22;10147;16.402;102.848;2023-11-19T05:42:58;28.90;89.50
19972;DHT22;10147;16.402;102.848;2023-11-19T05:45:29;29.20;89.80
19972;DHT22;10147;16.402;102.848;2023-11-19T05:48:01;29.00;86.20
19972;DHT22;10147;16.402;102.848;2023-11-19T05:50:34;29.30;84.30
19972;DHT22;10147;16.402;102.848;2023-11-19T05:53:03;29.30;90.20
19972;DHT22;10147;16.402;102.848;2023-11-19T05:55:36;29.70;83.70
19972;DHT22;10147;16.402;102.848;2023-11-19T05:58:14;29.90;89.20
19972;DHT22;10147;16.402;102.848;2023-11-19T06:00:44;30.00;82.50
19972;DHT22;10147;16.402;102.848;2023-11-19T06:03:17;29.70;81.10
19972;DHT22;10147;16.402;102.848;2023-11-19T06:05:51;29.60;84.00
19972;DHT22;10147;16.402;102.848;2023-11-19T06:08:21;29.50;84.70
19972;DHT22;10147;16.402;102.848;2023-11-19T06:10:51;29.80;80.10
19972;DHT22;10147;16.402;102.848;2023-11-19T06:13:21;30.00;81.70
19972;DHT22;10147;16.402;102.848;2023-11-19T06:15:52;30.10;80.50
19972;DHT22;10147;16.402;102.848;2023-11-19T06:18:22;30.10;82.30
19972;DHT22;10147;16.402;102.848;2023-11-19T06:20:53;30.00;81.80
19972;DHT22;10147;16.402;102.848;2023-11-19T06:23:22;30.20;81.40
19972;DHT22;10147;16.402;102.848;2023-11-19T06:25:53;30.60;76.90
19972;DHT22;10147;16.402;102.848;2023-11-19T06:28:22;30.60;80.70
19972;DHT22;10147;16.402;102.848;2023-11-19T06:30:53;30.60;76.20
19972;DHT22;10147;16.402;102.848;2023-11-19T06:33:23;30.90;78.10
19972;DHT22;10147;16.402;102.848;2023-11-19T06:35:53;30.80;78.90
19972;DHT22;10147;16.402;102.848;2023-11-19T06:38:23;30.50;80.80
19972;DHT22;10147;16.402;102.848;2023-11-19T06:40:53;30.60;76.60
19972;DHT22;10147;16.402;102.848;2023-11-19T06:43:23;30.80;75.30
19972;DHT22;10147;16.402;102.848;2023-11-19T06:45:56;30.90;77.00
19972;DHT22;10147;16.402;102.848;2023-11-19T06:48:26;30.80;75.80
19972;DHT22;10147;16.402;102.848;2023-11-19T06:51:00;30.80;76.60
19972;DHT22;10147;16.402;102.848;2023-11-19T06:53:29;30.80;73.30
19972;DHT22;10147;16.402;102.848;2023-11-19T06:55:59;30.50;76.60
19972;DHT22;10147;16.402;102.848;2023-11-19T06:58:30;30.30;72.80
19972;DHT22;10147;16.402;102.848;2023-11-19T07:01:00;30.10;72.30
19972;DHT22;10147;16.402;102.848;2023-11-19T07:03:30;30.20;73.90
19972;DHT22;10147;16.402;102.848;2023-11-19T07:06:00;30.20;71.80
19972;DHT22;10147;16.402;102.848;2023-11-19T07:08:30;30.30;75.20
19972;DHT22;10147;16.402;102.848;2023-11-19T07:11:01;30.60;72.80
19972;DHT22;10147;16.402;102.848;2023-11-19T07:13:31;30.70;75.10
19972;DHT22;10147;16.402;102.848;2023-11-19T07:16:01;30.90;72.30
19972;DHT22;10147;16.402;102.848;2023-11-19T07:18:31;30.80;73.40
19972;DHT22;10147;16.402;102.848;2023-11-19T07:21:03;30.60;72.30
19972;DHT22;10147;16.402;102.848;2023-11-19T07:23:33;30.40;73.20
19972;DHT22;10147;16.402;102.848;2023-11-19T07:26:07;30.80;71.70
19972;DHT22;10147;16.402;102.848;2023-11-19T07:28:46;30.80;72.80
19972;DHT22;10147;16.402;102.848;2023-11-19T07:31:16;30.70;73.40
19972;DHT22;10147;16.402;102.848;2023-11-19T07:33:50;31.00;71.60
19972;DHT22;10147;16.402;102.848;2023-11-19T07:36:20;31.00;70.00
19972;DHT22;10147;16.402;102.848;2023-11-19T07:38:50;30.90;67.30
19972;DHT22;10147;16.402;102.848;2023-11-19T07:41:20;30.90;65.70
19972;DHT22;10147;16.402;102.848;2023-11-19T07:43:50;30.80;66.90
19972;DHT22;10147;16.402;102.848;2023-11-19T07:46:20;30.80;70.90
19972;DHT22;10147;16.402;102.848;2023-11-19T07:48:51;30.60;69.80
19972;DHT22;10147;16.402;102.848;2023-11-19T07:51:22;30.70;69.30
19972;DHT22;10147;16.402;102.848;2023-11-19T07:53:52;30.90;69.90
19972;DHT22;10147;16.402;102.848;2023-11-19T07:56:22;30.80;67.50
19972;DHT22;10147;16.402;102.848;2023-11-19T07:58:52;30.80;68.80
19972;DHT22;10147;16.402;102.848;2023-11-19T08:01:22;30.80;67.30
19972;DHT22;10147;16.402;102.848;2023-11-19T08:03:53;30.90;71.40
19972;DHT22;10147;16.402;102.848;2023-11-19T08:06:27;30.70;68.80
19972;DHT22;10147;16.402;102.848;2023-11-19T08:08:57;30.60;67.90
19972;DHT22;10147;16.402;102.848;2023-11-19T08:11:29;30.60;67.80
19972;DHT22;10147;16.402;102.848;2023-11-19T08:13:59;30.70;68.50
19972;DHT22;10147;16.402;102.848;2023-11-19T08:16:29;30.50;68.50
19972;DHT22;10147;16.402;102.848;2023-11-19T08:18:59;30.50;67.30
19972;DHT22;10147;16.402;102.848;2023-11-19T08:21:29;30.40;67.40
19972;DHT22;10147;16.402;102.848;2023-11-19T08:23:59;30.30;68.00
19972;DHT22;10147;16.402;102.848;2023-11-19T08:26:29;30.00;68.70
19972;DHT22;10147;16.402;102.848;2023-11-19T08:28:59;30.20;68.40
19972;DHT22;10147;16.402;102.848;2023-11-19T08:31:29;30.40;68.80
19972;DHT22;10147;16.402;102.848;2023-11-19T08:33:59;30.30;67.40
19972;DHT22;10147;16.402;102.848;2023-11-19T08:36:29;30.20;69.90
19972;DHT22;10147;16.402;102.848;2023-11-19T08:39:01;29.90;68.90
19972;DHT22;10147;16.402;102.848;2023-11-19T08:41:31;30.10;67.10
19972;DHT22;10147;16.402;102.848;2023-11-19T08:44:04;29.90;69.70
19972;DHT22;10147;16.402;102.848;2023-11-19T08:46:34;30.10;71.20
19972;DHT22;10147;16.402;102.848;2023-11-19T08:49:04;30.10;70.50
19972;DHT22;10147;16.402;102.848;2023-11-19T08:51:34;30.00;70.10
19972;DHT22;10147;16.402;102.848;2023-11-19T08:54:04;30.10;70.30
19972;DHT22;10147;16.402;102.848;2023-11-19T08:56:35;30.00;73.60
19972;DHT22;10147;16.402;102.848;2023-11-19T08:59:05;29.80;75.50
19972;DHT22;10147;16.402;102.848;2023-11-19T09:01:35;29.70;73.70
19972;DHT22;10147;16.402;102.848;2023-11-19T09:04:08;29.70;72.90
19972;DHT22;10147;16.402;102.848;2023-11-19T09:06:38;29.60;73.90
19972;DHT22;10147;16.402;102.848;2023-11-19T09:09:08;29.70;74.00
19972;DHT22;10147;16.402;102.848;2023-11-19T09:11:39;29.70;73.50
19972;DHT22;10147;16.402;102.848;2023-11-19T09:14:09;29.70;73.90
19972;DHT22;10147;16.402;102.848;2023-11-19T09:16:39;29.40;73.20
19972;DHT22;10147;16.402;102.848;2023-11-19T09:19:09;29.50;75.70
19972;DHT22;10147;16.402;102.848;2023-11-19T09:21:39;29.40;75.40
19972;DHT22;10147;16.402;102.848;2023-11-19T09:24:08;29.30;74.30
19972;DHT22;10147;16.402;102.848;2023-11-19T09:26:42;29.30;75.30
19972;DHT22;10147;16.402;102.848;2023-11-19T09:29:12;29.20;74.90
19972;DHT22;10147;16.402;102.848;2023-11-19T09:31:44;29.20;75.20
19972;DHT22;10147;16.402;102.848;2023-11-19T09:34:14;29.20;75.50
19972;DHT22;10147;16.402;102.848;2023-11-19T09:36:44;29.20;75.70
19972;DHT22;10147;16.402;102.848;2023-11-19T09:39:14;29.20;77.20
19972;DHT22;10147;16.402;102.848;2023-11-19T09:41:47;28.90;76.50
19972;DHT22;10147;16.402;102.848;2023-11-19T09:44:20;28.80;77.80
19972;DHT22;10147;16.402;102.848;2023-11-19T09:46:53;28.70;76.50
19972;DHT22;10147;16.402;102.848;2023-11-19T09:49:25;28.70;76.30
19972;DHT22;10147;16.402;102.848;2023-11-19T09:51:58;28.60;77.00
19972;DHT22;10147;16.402;102.848;2023-11-19T09:54:29;28.40;77.90
19972;DHT22;10147;16.402;102.848;2023-11-19T09:57:00;28.40;76.80
19972;DHT22;10147;16.402;102.848;2023-11-19T09:59:33;28.20;77.70
19972;DHT22;10147;16.402;102.848;2023-11-19T10:02:03;28.10;78.10
19972;DHT22;10147;16.402;102.848;2023-11-19T10:04:36;28.00;79.00
19972;DHT22;10147;16.402;102.848;2023-11-19T10:07:06;28.00;80.70
19972;DHT22;10147;16.402;102.848;2023-11-19T10:09:36;28.00;80.50
19972;DHT22;10147;16.402;102.848;2023-11-19T10:12:07;27.90;80.60
19972;DHT22;10147;16.402;102.848;2023-11-19T10:14:38;27.90;82.10
19972;DHT22;10147;16.402;102.848;2023-11-19T10:17:09;27.80;81.90
19972;DHT22;10147;16.402;102.848;2023-11-19T10:19:40;27.80;84.20
19972;DHT22;10147;16.402;102.848;2023-11-19T10:22:11;27.80;83.00
19972;DHT22;10147;16.402;102.848;2023-11-19T10:24:43;27.70;82.70
19972;DHT22;10147;16.402;102.848;2023-11-19T10:27:24;27.70;83.40
19972;DHT22;10147;16.402;102.848;2023-11-19T10:29:59;27.60;84.50
19972;DHT22;10147;16.402;102.848;2023-11-19T10:32:30;27.60;85.50
19972;DHT22;10147;16.402;102.848;2023-11-19T10:35:06;27.50;86.00
19972;DHT22;10147;16.402;102.848;2023-11-19T10:37:37;27.50;86.60
19972;DHT22;10147;16.402;102.848;2023-11-19T10:40:07;27.50;88.00
19972;DHT22;10147;16.402;102.848;2023-11-19T10:42:41;27.50;86.80
19972;DHT22;10147;16.402;102.848;2023-11-19T10:45:30;27.50;87.70
19972;DHT22;10147;16.402;102.848;2023-11-19T10:48:03;27.40;88.80
19972;DHT22;10147;16.402;102.848;2023-11-19T10:50:37;27.30;89.50
19972;DHT22;10147;16.402;102.848;2023-11-19T10:53:11;27.20;89.70
19972;DHT22;10147;16.402;102.848;2023-11-19T10:55:47;27.10;90.40
19972;DHT22;10147;16.402;102.848;2023-11-19T10:58:19;27.20;90.40
19972;DHT22;10147;16.402;102.848;2023-11-19T11:00:55;27.20;90.60
19972;DHT22;10147;16.402;102.848;2023-11-19T11:03:31;27.00;90.90
19972;DHT22;10147;16.402;102.848;2023-11-19T11:06:06;26.90;91.00
19972;DHT22;10147;16.402;102.848;2023-11-19T11:08:39;26.90;91.60
19972;DHT22;10147;16.402;102.848;2023-11-19T11:11:13;26.90;91.20
19972;DHT22;10147;16.402;102.848;2023-11-19T11:13:47;26.70;91.80
19972;DHT22;10147;16.402;102.848;2023-11-19T11:16:20;26.70;92.00
19972;DHT22;10147;16.402;102.848;2023-11-19T11:18:52;26.40;92.50
19972;DHT22;10147;16.402;102.848;2023-11-19T11:21:26;26.50;92.50
19972;DHT22;10147;16.402;102.848;2023-11-19T11:30:31;26.50;93.20
19972;DHT22;10147;16.402;102.848;2023-11-19T11:33:32;26.50;93.40
19972;DHT22;10147;16.402;102.848;2023-11-19T11:36:17;26.50;93.50
19972;DHT22;10147;16.402;102.848;2023-11-19T11:38:49;26.30;93.40
19972;DHT22;10147;16.402;102.848;2023-11-19T11:41:22;26.30;93.60
19972;DHT22;10147;16.402;102.848;2023-11-19T11:43:57;26.40;93.60
19972;DHT22;10147;16.402;102.848;2023-11-19T11:46:53;26.30;93.90
19972;DHT22;10147;16.402;102.848;2023-11-19T11:49:25;26.30;94.10
19972;DHT22;10147;16.402;102.848;2023-11-19T11:51:59;26.30;94.30
19972;DHT22;10147;16.402;102.848;2023-11-19T11:54:30;26.30;94.70
19972;DHT22;10147;16.402;102.848;2023-11-19T11:57:20;26.00;94.70
19972;DHT22;10147;16.402;102.848;2023-11-19T11:59:52;26.10;95.20
19972;DHT22;10147;16.402;102.848;2023-11-19T12:02:22;26.10;95.30
19972;DHT22;10147;16.402;102.848;2023-11-19T12:04:53;26.00;95.40
19972;DHT22;10147;16.402;102.848;2023-11-19T12:07:25;26.00;95.70
19972;DHT22;10147;16.402;102.848;2023-11-19T12:10:15;26.00;96.20
19972;DHT22;10147;16.402;102.848;2023-11-19T12:12:45;25.80;96.00
19972;DHT22;10147;16.402;102.848;2023-11-19T12:15:16;25.90;96.20
19972;DHT22;10147;16.402;102.848;2023-11-19T12:17:50;25.80;96.10
19972;DHT22;10147;16.402;102.848;2023-11-19T12:20:23;25.90;96.50
19972;DHT22;10147;16.402;102.848;2023-11-19T12:22:56;25.90;96.90
19972;DHT22;10147;16.402;102.848;2023-11-19T12:25:27;25.80;96.80
19972;DHT22;10147;16.402;102.848;2023-11-19T12:27:57;25.70;96.90
19972;DHT22;10147;16.402;102.848;2023-11-19T12:30:28;25.80;97.40
19972;DHT22;10147;16.402;102.848;2023-11-19T12:33:00;25.70;97.30
19972;DHT22;10147;16.402;102.848;2023-11-19T12:35:29;25.40;97.90
19972;DHT22;10147;16.402;102.848;2023-11-19T12:38:00;25.30;98.30
19972;DHT22;10147;16.402;102.848;2023-11-19T12:40:31;25.20;98.40
19972;DHT22;10147;16.402;102.848;2023-11-19T12:43:01;25.10;98.60
19972;DHT22;10147;16.402;102.848;2023-11-19T12:45:37;25.10;99.00
19972;DHT22;10147;16.402;102.848;2023-11-19T12:48:08;25.20;99.00
19972;DHT22;10147;16.402;102.848;2023-11-19T12:51:02;25.00;99.50
19972;DHT22;10147;16.402;102.848;2023-11-19T12:53:48;24.90;99.90
19972;DHT22;10147;16.402;102.848;2023-11-19T12:56:20;24.90;99.90
19972;DHT22;10147;16.402;102.848;2023-11-19T12:58:51;24.90;99.80
19972;DHT22;10147;16.402;102.848;2023-11-19T13:01:21;25.20;99.90
19972;DHT22;10147;16.402;102.848;2023-11-19T13:03:53;25.30;99.90
19972;DHT22;10147;16.402;102.848;2023-11-19T13:06:23;25.20;99.90
19972;DHT22;10147;16.402;102.848;2023-11-19T13:08:55;24.90;99.90
19972;DHT22;10147;16.402;102.848;2023-11-19T13:11:32;24.90;99.90
19972;DHT22;10147;16.402;102.848;2023-11-19T13:14:04;24.80;99.90
19972;DHT22;10147;16.402;102.848;2023-11-19T13:16:38;24.90;99.90
19972;DHT22;10147;16.402;102.848;2023-11-19T13:19:09;25.00;99.90
19972;DHT22;10147;16.402;102.848;2023-11-19T13:21:40;24.80;99.90
19972;DHT22;10147;16.402;102.848;2023-11-19T13:24:10;25.00;99.90
19972;DHT22;10147;16.402;102.848;2023-11-19T13:26:40;25.10;99.90
19972;DHT22;10147;16.402;102.848;2023-11-19T13:29:11;25.00;99.90
19972;DHT22;10147;16.402;102.848;2023-11-19T13:31:41;24.90;99.90
19972;DHT22;10147;16.402;102.848;2023-11-19T13:34:11;24.90;99.90
19972;DHT22;10147;16.402;102.848;2023-11-19T13:36:41;24.80;99.90
19972;DHT22;10147;16.402;102.848;2023-11-19T13:39:12;24.90;99.90
19972;DHT22;10147;16.402;102.848;2023-11-19T13:41:42;24.90;99.90
19972;DHT22;10147;16.402;102.848;2023-11-19T13:44:13;24.70;99.90
19972;DHT22;10147;16.402;102.848;2023-11-19T13:46:45;24.70;99.90
19972;DHT22;10147;16.402;102.848;2023-11-19T13:49:17;24.70;99.90
19972;DHT22;10147;16.402;102.848;2023-11-19T13:51:51;24.60;99.90
19972;DHT22;10147;16.402;102.848;2023-11-19T13:54:23;24.70;99.90
19972;DHT22;10147;16.402;102.848;2023-11-19T13:56:55;24.70;99.90
19972;DHT22;10147;16.402;102.848;2023-11-19T13:59:28;24.60;99.90
19972;DHT22;10147;16.402;102.848;2023-11-19T14:01:58;24.40;99.90
19972;DHT22;10147;16.402;102.848;2023-11-19T14:04:29;24.50;99.90
19972;DHT22;10147;16.402;102.848;2023-11-19T14:06:59;24.60;99.90
19972;DHT22;10147;16.402;102.848;2023-11-19T14:09:30;24.60;99.90
19972;DHT22;10147;16.402;102.848;2023-11-19T14:12:01;24.30;99.90
19972;DHT22;10147;16.402;102.848;2023-11-19T14:14:31;24.40;99.90
19972;DHT22;10147;16.402;102.848;2023-11-19T14:17:04;24.30;99.90
19972;DHT22;10147;16.402;102.848;2023-11-19T14:19:38;24.30;99.90
19972;DHT22;10147;16.402;102.848;2023-11-19T14:22:09;24.30;99.90
19972;DHT22;10147;16.402;102.848;2023-11-19T14:24:41;24.40;99.90
19972;DHT22;10147;16.402;102.848;2023-11-19T14:27:12;24.40;99.90
19972;DHT22;10147;16.402;102.848;2023-11-19T14:29:43;24.40;99.90
19972;DHT22;10147;16.402;102.848;2023-11-19T14:32:14;24.30;99.90
19972;DHT22;10147;16.402;102.848;2023-11-19T14:34:46;24.20;99.90
19972;DHT22;10147;16.402;102.848;2023-11-19T14:37:16;24.20;99.90
19972;DHT22;10147;16.402;102.848;2023-11-19T14:39:47;24.10;99.90
19972;DHT22;10147;16.402;102.848;2023-11-19T14:42:17;24.00;99.90
19972;DHT22;10147;16.402;102.848;2023-11-19T14:44:49;24.00;99.90
19972;DHT22;10147;16.402;102.848;2023-11-19T14:47:20;24.00;99.90
19972;DHT22;10147;16.402;102.848;2023-11-19T14:49:51;24.00;99.90
19972;DHT22;10147;16.402;102.848;2023-11-19T14:52:21;24.00;99.90
19972;DHT22;10147;16.402;102.848;2023-11-19T14:54:51;24.00;99.90
19972;DHT22;10147;16.402;102.848;2023-11-19T14:57:25;23.90;99.90
19972;DHT22;10147;16.402;102.848;2023-11-19T14:59:55;23.80;99.90
19972;DHT22;10147;16.402;102.848;2023-11-19T15:02:25;23.80;99.90
19972;DHT22;10147;16.402;102.848;2023-11-19T15:04:56;23.90;99.90
19972;DHT22;10147;16.402;102.848;2023-11-19T15:07:27;23.90;99.90
19972;DHT22;10147;16.402;102.848;2023-11-19T15:09:59;23.90;99.90
19972;DHT22;10147;16.402;102.848;2023-11-19T15:12:32;23.80;99.90
19972;DHT22;10147;16.402;102.848;2023-11-19T15:15:11;23.70;99.90
19972;DHT22;10147;16.402;102.848;2023-11-19T15:18:04;23.70;99.90
19972;DHT22;10147;16.402;102.848;2023-11-19T15:20:34;23.60;99.90
19972;DHT22;10147;16.402;102.848;2023-11-19T15:23:06;23.50;99.90
19972;DHT22;10147;16.402;102.848;2023-11-19T15:25:40;23.50;99.90
19972;DHT22;10147;16.402;102.848;2023-11-19T15:28:10;23.50;99.90
19972;DHT22;10147;16.402;102.848;2023-11-19T15:30:41;23.50;99.90
19972;DHT22;10147;16.402;102.848;2023-11-19T15:33:11;23.50;99.90
19972;DHT22;10147;16.402;102.848;2023-11-19T15:35:42;23.60;99.90
19972;DHT22;10147;16.402;102.848;2023-11-19T15:38:12;23.50;99.90